Time;durP1;ratioP1;P1;durP2;ratioP2;P2;SDS_P1;SDS_P2;PMS_P1;PMS_P2;Temp;Humidity;BMP_temperature;BMP_pressure;BME280_temperature;BME280_humidity;BME280_pressure;Samples;Min_cycle;Max_cycle;Signal;HPM_P1;HPM_P2
2022/06/12 00:00:51;;;;;;;;;;;13.90;99.90;;;;;;5098587;28;19946;-80
2022/06/12 00:03:18;;;;;;;;;;;13.90;99.90;;;;;;5112314;28;20276;-82
2022/06/12 00:05:45;;;;;;;;;;;13.90;99.90;;;;;;5103020;28;19915;-80
2022/06/12 00:08:11;;;;;;;;;;;13.90;99.90;;;;;;5104514;28;19912;-81
2022/06/12 00:10:37;;;;;;;;;;;13.90;99.90;;;;;;5110251;28;20038;-80
2022/06/12 00:13:03;;;;;;;;;;;13.80;99.90;;;;;;5098885;28;19908;-79
2022/06/12 00:15:29;;;;;;;;;;;13.80;99.90;;;;;;5110353;28;20319;-79
2022/06/12 00:17:55;;;;;;;;;;;13.70;99.90;;;;;;5085945;28;20117;-81
2022/06/12 00:20:25;;;;;;;;;;;13.70;99.90;;;;;;5115622;28;20285;-81
2022/06/12 00:22:51;;;;;;;;;;;13.70;99.90;;;;;;5098210;28;19908;-80
2022/06/12 00:25:18;;;;;;;;;;;13.60;99.90;;;;;;5111653;28;19973;-80
2022/06/12 00:27:44;;;;;;;;;;;13.50;99.90;;;;;;5102353;28;19912;-81
2022/06/12 00:30:11;;;;;;;;;;;13.50;99.90;;;;;;5104335;28;19912;-80
2022/06/12 00:32:38;;;;;;;;;;;13.60;99.90;;;;;;5094776;28;20346;-80
2022/06/12 00:35:07;;;;;;;;;;;13.60;99.90;;;;;;5113010;28;19954;-81
2022/06/12 00:37:33;;;;;;;;;;;13.60;99.90;;;;;;5109314;28;19909;-80
2022/06/12 00:39:59;;;;;;;;;;;13.50;99.90;;;;;;5104442;28;19915;-79
2022/06/12 00:42:30;;;;;;;;;;;13.50;99.90;;;;;;5102053;28;19957;-79
2022/06/12 00:44:57;;;;;;;;;;;13.50;99.90;;;;;;5094357;28;19912;-79
2022/06/12 00:47:23;;;;;;;;;;;13.50;99.90;;;;;;5099497;28;20258;-80
2022/06/12 00:49:51;;;;;;;;;;;13.40;99.90;;;;;;5084615;28;19912;-79
2022/06/12 00:52:22;;;;;;;;;;;13.40;99.90;;;;;;5107944;28;19908;-80
2022/06/12 00:54:51;;;;;;;;;;;13.40;99.90;;;;;;5097873;28;19919;-80
2022/06/12 00:57:18;;;;;;;;;;;13.40;99.90;;;;;;5098294;28;19947;-80
2022/06/12 00:59:46;;;;;;;;;;;13.40;99.90;;;;;;5114484;28;20010;-79
2022/06/12 01:02:13;;;;;;;;;;;13.30;99.90;;;;;;5115074;28;19908;-79
2022/06/12 01:07:27;;;;;;;;;;;13.30;99.90;;;;;;5099111;28;20429;-79
2022/06/12 01:09:54;;;;;;;;;;;13.30;99.90;;;;;;5114277;28;19977;-79
2022/06/12 01:12:23;;;;;;;;;;;13.20;99.90;;;;;;5101997;28;19947;-80
2022/06/12 01:14:55;;;;;;;;;;;13.10;99.90;;;;;;5093917;28;19908;-80
2022/06/12 01:17:21;;;;;;;;;;;13.00;99.90;;;;;;5098684;28;19941;-80
2022/06/12 01:19:53;;;;;;;;;;;13.00;99.90;;;;;;5105806;28;19920;-79
2022/06/12 01:22:37;;;;;;;;;;;12.80;99.90;;;;;;5106775;28;19990;-80
2022/06/12 01:25:03;;;;;;;;;;;12.80;99.90;;;;;;5097634;28;19912;-78
2022/06/12 01:27:40;;;;;;;;;;;12.80;99.90;;;;;;5108572;28;19913;-79
2022/06/12 01:30:12;;;;;;;;;;;12.80;99.90;;;;;;5104522;28;19943;-80
2022/06/12 01:32:49;;;;;;;;;;;12.90;99.90;;;;;;5099104;28;19908;-77
2022/06/12 01:35:38;;;;;;;;;;;12.90;99.90;;;;;;5097612;28;20355;-79
2022/06/12 01:38:06;;;;;;;;;;;12.90;99.90;;;;;;5092515;28;19916;-80
2022/06/12 01:40:37;;;;;;;;;;;13.00;99.90;;;;;;5108275;28;19990;-79
2022/06/12 01:43:08;;;;;;;;;;;12.90;99.90;;;;;;5096518;28;19914;-79
2022/06/12 01:45:37;;;;;;;;;;;13.00;99.90;;;;;;5100060;28;19912;-80
2022/06/12 01:48:21;;;;;;;;;;;13.00;99.90;;;;;;5103201;28;19998;-79
2022/06/12 01:50:47;;;;;;;;;;;13.00;99.90;;;;;;5109285;28;19996;-79
2022/06/12 01:53:31;;;;;;;;;;;13.00;99.90;;;;;;5097040;28;19939;-79
2022/06/12 01:56:19;;;;;;;;;;;13.10;99.90;;;;;;5103805;28;19909;-79
2022/06/12 01:58:51;;;;;;;;;;;13.00;99.90;;;;;;5108916;28;20379;-79
2022/06/12 02:01:22;;;;;;;;;;;13.00;99.90;;;;;;5097219;28;19908;-79
2022/06/12 02:03:56;;;;;;;;;;;13.00;99.90;;;;;;5105039;28;20258;-79
2022/06/12 02:06:30;;;;;;;;;;;13.00;99.90;;;;;;5106427;28;19907;-79
2022/06/12 02:09:00;;;;;;;;;;;13.00;99.90;;;;;;5096328;28;19915;-78
2022/06/12 02:14:19;;;;;;;;;;;12.90;99.90;;;;;;5105712;28;19915;-79
2022/06/12 02:16:47;;;;;;;;;;;13.00;99.90;;;;;;5096579;28;20265;-79
2022/06/12 02:19:17;;;;;;;;;;;12.90;99.90;;;;;;5110273;28;19912;-80
2022/06/12 02:21:48;;;;;;;;;;;12.90;99.90;;;;;;5099723;28;20365;-78
2022/06/12 02:24:17;;;;;;;;;;;13.00;99.90;;;;;;5101796;28;19908;-80
2022/06/12 02:26:43;;;;;;;;;;;12.90;99.90;;;;;;5108129;28;20168;-79
2022/06/12 02:29:13;;;;;;;;;;;12.90;99.90;;;;;;5096181;28;20003;-79
2022/06/12 02:31:41;;;;;;;;;;;12.90;99.90;;;;;;5106272;28;19969;-81
2022/06/12 02:34:09;;;;;;;;;;;12.90;99.90;;;;;;5103192;28;19914;-79
2022/06/12 02:36:37;;;;;;;;;;;12.70;99.90;;;;;;5098122;28;19916;-79
2022/06/12 02:39:06;;;;;;;;;;;12.70;99.90;;;;;;5109063;28;19912;-79
2022/06/12 02:41:37;;;;;;;;;;;12.70;99.90;;;;;;5098992;28;19911;-79
2022/06/12 02:44:09;;;;;;;;;;;12.70;99.90;;;;;;5102179;28;19908;-79
2022/06/12 02:46:44;;;;;;;;;;;12.60;99.90;;;;;;5089547;28;20419;-79
2022/06/12 02:49:10;;;;;;;;;;;12.60;99.90;;;;;;5110203;28;20394;-79
2022/06/12 02:51:35;;;;;;;;;;;12.50;99.90;;;;;;5099344;28;20322;-79
2022/06/12 02:54:09;;;;;;;;;;;12.50;99.90;;;;;;5112508;28;19908;-80
2022/06/12 02:56:42;;;;;;;;;;;12.50;99.90;;;;;;5098467;28;19944;-79
2022/06/12 02:59:14;;;;;;;;;;;12.50;99.90;;;;;;5098626;28;19908;-81
2022/06/12 03:01:49;;;;;;;;;;;12.50;99.90;;;;;;5092156;28;19918;-80
2022/06/12 03:04:19;;;;;;;;;;;12.50;99.90;;;;;;5108608;28;20261;-80
2022/06/12 03:06:45;;;;;;;;;;;12.50;99.90;;;;;;5100453;28;19908;-78
2022/06/12 03:09:11;;;;;;;;;;;12.40;99.90;;;;;;5113487;28;19923;-80
2022/06/12 03:11:40;;;;;;;;;;;12.40;99.90;;;;;;5096804;28;19912;-79
2022/06/12 03:14:10;;;;;;;;;;;12.40;99.90;;;;;;5107023;28;19912;-79
2022/06/12 03:16:37;;;;;;;;;;;12.40;99.90;;;;;;5117173;28;19957;-79
2022/06/12 03:19:04;;;;;;;;;;;12.40;99.90;;;;;;5114075;28;20550;-78
2022/06/12 03:21:33;;;;;;;;;;;12.40;99.90;;;;;;5102473;28;19919;-79
2022/06/12 03:24:17;;;;;;;;;;;12.30;99.90;;;;;;5106360;28;20285;-80
2022/06/12 03:26:52;;;;;;;;;;;12.30;99.90;;;;;;5096547;28;19908;-79
2022/06/12 03:29:20;;;;;;;;;;;12.30;99.90;;;;;;5099962;28;19916;-79
2022/06/12 03:31:55;;;;;;;;;;;12.30;99.90;;;;;;5108335;28;19912;-77
2022/06/12 03:34:27;;;;;;;;;;;12.40;99.90;;;;;;5109204;28;19907;-80
2022/06/12 03:36:57;;;;;;;;;;;12.40;99.90;;;;;;5099846;28;20285;-79
2022/06/12 03:39:28;;;;;;;;;;;12.40;99.90;;;;;;5111992;28;19912;-80
2022/06/12 03:41:56;;;;;;;;;;;12.40;99.90;;;;;;5104881;28;19908;-79
2022/06/12 03:44:37;;;;;;;;;;;12.50;99.90;;;;;;5103759;28;20000;-80
2022/06/12 03:47:15;;;;;;;;;;;12.50;99.90;;;;;;5112313;28;20424;-79
2022/06/12 03:49:46;;;;;;;;;;;12.50;99.90;;;;;;5103275;28;19912;-80
2022/06/12 03:52:15;;;;;;;;;;;12.50;99.90;;;;;;5104695;28;19908;-79
2022/06/12 03:55:10;;;;;;;;;;;12.50;99.90;;;;;;5111463;28;20360;-79
2022/06/12 03:57:51;;;;;;;;;;;12.60;99.90;;;;;;5088548;28;20300;-79
2022/06/12 04:00:29;;;;;;;;;;;12.50;99.90;;;;;;5103792;28;19908;-80
2022/06/12 04:03:04;;;;;;;;;;;12.60;99.90;;;;;;5112873;28;19907;-79
2022/06/12 04:05:32;;;;;;;;;;;12.50;99.90;;;;;;5110160;28;19915;-80
2022/06/12 04:07:59;;;;;;;;;;;12.40;99.90;;;;;;5104936;28;19935;-79
2022/06/12 04:10:27;;;;;;;;;;;12.40;99.90;;;;;;5100954;28;20288;-80
2022/06/12 04:12:54;;;;;;;;;;;12.40;99.90;;;;;;5111483;28;20392;-79
2022/06/12 04:15:22;;;;;;;;;;;12.30;99.90;;;;;;5099796;28;20006;-79
2022/06/12 04:17:48;;;;;;;;;;;12.40;99.90;;;;;;5107427;28;20275;-77
2022/06/12 04:20:24;;;;;;;;;;;12.40;99.90;;;;;;5106628;28;19920;-79
2022/06/12 04:23:08;;;;;;;;;;;12.40;99.90;;;;;;5083723;28;19908;-78
2022/06/12 04:25:44;;;;;;;;;;;12.30;99.90;;;;;;5079290;28;19909;-79
2022/06/12 04:28:22;;;;;;;;;;;12.40;99.90;;;;;;5106001;28;19916;-79
2022/06/12 04:30:48;;;;;;;;;;;12.30;99.90;;;;;;5098571;28;19912;-76
2022/06/12 04:33:14;;;;;;;;;;;12.30;99.90;;;;;;5098272;28;19953;-79
2022/06/12 04:35:42;;;;;;;;;;;12.30;99.90;;;;;;5108425;28;19908;-80
2022/06/12 04:38:08;;;;;;;;;;;12.30;99.90;;;;;;5094391;28;20503;-80
2022/06/12 04:40:33;;;;;;;;;;;12.30;99.90;;;;;;5109382;28;20025;-80
2022/06/12 04:42:59;;;;;;;;;;;12.40;99.90;;;;;;5097705;28;19915;-80
2022/06/12 04:45:25;;;;;;;;;;;12.40;99.90;;;;;;5095081;28;20353;-80
2022/06/12 04:47:50;;;;;;;;;;;12.40;99.90;;;;;;5102564;28;19918;-77
2022/06/12 04:50:16;;;;;;;;;;;12.40;99.90;;;;;;5103049;28;19912;-79
2022/06/12 04:52:42;;;;;;;;;;;12.50;99.90;;;;;;5094684;28;19908;-79
2022/06/12 04:55:08;;;;;;;;;;;12.50;99.90;;;;;;5111037;28;19961;-79
2022/06/12 04:57:33;;;;;;;;;;;12.60;99.90;;;;;;5094833;28;20002;-79
2022/06/12 04:59:59;;;;;;;;;;;12.70;99.90;;;;;;5103539;28;20003;-81
2022/06/12 05:02:24;;;;;;;;;;;12.70;99.90;;;;;;5102005;28;19915;-79
2022/06/12 05:04:50;;;;;;;;;;;12.80;99.90;;;;;;5111013;28;20264;-77
2022/06/12 05:07:16;;;;;;;;;;;12.90;99.90;;;;;;5109487;28;19912;-79
2022/06/12 05:09:42;;;;;;;;;;;12.90;99.90;;;;;;5125748;28;19912;-79
2022/06/12 05:12:09;;;;;;;;;;;13.00;99.90;;;;;;5106993;28;19907;-79
2022/06/12 05:14:35;;;;;;;;;;;13.10;99.90;;;;;;5100525;28;19957;-80
2022/06/12 05:17:03;;;;;;;;;;;13.20;99.90;;;;;;5092401;28;19911;-81
2022/06/12 05:19:31;;;;;;;;;;;13.30;99.90;;;;;;5099597;28;19959;-79
2022/06/12 05:21:57;;;;;;;;;;;13.40;99.90;;;;;;5104049;28;19939;-79
2022/06/12 05:24:22;;;;;;;;;;;13.60;99.90;;;;;;5089300;28;19958;-79
2022/06/12 05:26:49;;;;;;;;;;;13.60;99.90;;;;;;5097550;28;19961;-81
2022/06/12 05:29:17;;;;;;;;;;;13.60;99.90;;;;;;5096734;28;20424;-82
2022/06/12 05:31:44;;;;;;;;;;;13.70;99.90;;;;;;5106782;28;20349;-81
2022/06/12 05:34:09;;;;;;;;;;;13.60;99.90;;;;;;5086599;28;19912;-80
2022/06/12 05:36:35;;;;;;;;;;;13.60;99.90;;;;;;5081132;28;19912;-79
2022/06/12 05:39:01;;;;;;;;;;;13.50;99.90;;;;;;5109900;28;19939;-79
2022/06/12 05:41:26;;;;;;;;;;;13.50;99.90;;;;;;5099179;28;19950;-81
2022/06/12 05:43:52;;;;;;;;;;;13.50;99.90;;;;;;5105140;28;19912;-78
2022/06/12 05:46:17;;;;;;;;;;;13.40;99.90;;;;;;5105641;28;19950;-80
2022/06/12 05:48:43;;;;;;;;;;;13.40;99.90;;;;;;5097828;28;20003;-80
2022/06/12 05:51:11;;;;;;;;;;;13.30;99.90;;;;;;5109690;28;20116;-79
2022/06/12 05:53:37;;;;;;;;;;;13.20;99.90;;;;;;5082164;28;20280;-79
2022/06/12 05:56:07;;;;;;;;;;;13.30;99.90;;;;;;5122965;28;19892;-79
2022/06/12 05:58:34;;;;;;;;;;;13.40;99.90;;;;;;5120525;28;19911;-79
2022/06/12 06:01:00;;;;;;;;;;;13.70;99.90;;;;;;5096715;28;19964;-79
2022/06/12 06:03:26;;;;;;;;;;;13.90;99.90;;;;;;5098690;28;20320;-79
2022/06/12 06:05:51;;;;;;;;;;;14.10;99.90;;;;;;5086848;28;19914;-79
2022/06/12 06:08:17;;;;;;;;;;;14.20;99.90;;;;;;5105027;28;19919;-81
2022/06/12 06:10:43;;;;;;;;;;;14.20;99.90;;;;;;5097833;28;20262;-82
2022/06/12 06:13:09;;;;;;;;;;;14.30;99.90;;;;;;5109227;28;20353;-80
2022/06/12 06:15:35;;;;;;;;;;;14.40;99.90;;;;;;5099441;28;20022;-80
2022/06/12 06:18:00;;;;;;;;;;;14.60;99.90;;;;;;5102681;28;19915;-80
2022/06/12 06:20:28;;;;;;;;;;;14.60;99.90;;;;;;5106488;28;20131;-80
2022/06/12 06:22:54;;;;;;;;;;;14.70;99.90;;;;;;5097492;28;19919;-77
2022/06/12 06:25:20;;;;;;;;;;;14.80;99.90;;;;;;5111949;28;19947;-80
2022/06/12 06:27:46;;;;;;;;;;;14.80;99.90;;;;;;5101037;28;19923;-81
2022/06/12 06:30:12;;;;;;;;;;;14.80;99.90;;;;;;5101011;28;19912;-80
2022/06/12 06:32:38;;;;;;;;;;;14.90;99.90;;;;;;5107101;28;20253;-80
2022/06/12 06:35:04;;;;;;;;;;;14.90;99.90;;;;;;5095699;28;19934;-78
2022/06/12 06:37:31;;;;;;;;;;;15.10;99.90;;;;;;5107640;28;19931;-78
2022/06/12 06:39:56;;;;;;;;;;;15.10;99.90;;;;;;5101873;28;19908;-78
2022/06/12 06:42:23;;;;;;;;;;;15.40;99.90;;;;;;5101307;28;19916;-79
2022/06/12 06:47:33;;;;;;;;;;;15.40;99.90;;;;;;5102522;28;19941;-79
2022/06/12 06:49:59;;;;;;;;;;;15.40;99.90;;;;;;5103931;28;19916;-78
2022/06/12 06:52:24;;;;;;;;;;;15.40;99.90;;;;;;5106370;28;19940;-79
2022/06/12 06:54:50;;;;;;;;;;;15.50;99.90;;;;;;5112860;28;20356;-78
2022/06/12 06:57:15;;;;;;;;;;;15.60;99.90;;;;;;5095606;28;19959;-79
2022/06/12 06:59:41;;;;;;;;;;;15.60;99.90;;;;;;5106204;28;19915;-78
2022/06/12 07:02:07;;;;;;;;;;;15.70;99.90;;;;;;5102901;28;19908;-78
2022/06/12 07:04:33;;;;;;;;;;;15.80;99.90;;;;;;5098473;28;19931;-78
2022/06/12 07:06:59;;;;;;;;;;;15.90;99.90;;;;;;5108534;28;20356;-78
2022/06/12 07:09:24;;;;;;;;;;;16.00;99.90;;;;;;5097269;28;19951;-78
2022/06/12 07:11:50;;;;;;;;;;;15.90;99.90;;;;;;5104381;28;20424;-78
2022/06/12 07:14:16;;;;;;;;;;;16.20;99.90;;;;;;5103971;28;20049;-79
2022/06/12 07:16:42;;;;;;;;;;;16.30;99.90;;;;;;5096962;28;19908;-79
2022/06/12 07:19:08;;;;;;;;;;;16.30;99.90;;;;;;5108733;28;19908;-78
2022/06/12 07:21:34;;;;;;;;;;;16.30;99.90;;;;;;5098408;28;19972;-78
2022/06/12 07:23:59;;;;;;;;;;;16.20;99.90;;;;;;5102453;28;19912;-77
2022/06/12 07:26:33;;;;;;;;;;;16.20;99.90;;;;;;5106236;28;19912;-78
2022/06/12 07:28:59;;;;;;;;;;;16.00;99.90;;;;;;5095377;28;19964;-77
2022/06/12 07:31:24;;;;;;;;;;;16.00;99.90;;;;;;5111411;28;19916;-78
2022/06/12 07:33:50;;;;;;;;;;;16.20;99.90;;;;;;5114093;28;19908;-81
2022/06/12 07:36:17;;;;;;;;;;;16.10;99.90;;;;;;5102082;28;19981;-82
2022/06/12 07:38:43;;;;;;;;;;;15.90;99.90;;;;;;5108342;28;19907;-80
2022/06/12 07:41:10;;;;;;;;;;;15.60;99.90;;;;;;5095636;28;20391;-81
2022/06/12 07:43:36;;;;;;;;;;;15.40;99.90;;;;;;5106976;28;20005;-80
2022/06/12 07:46:02;;;;;;;;;;;15.20;99.90;;;;;;5105796;28;20416;-79
2022/06/12 07:48:28;;;;;;;;;;;15.00;99.90;;;;;;5102571;28;19974;-79
2022/06/12 07:50:54;;;;;;;;;;;15.00;99.90;;;;;;5112558;28;20361;-79
2022/06/12 07:53:20;;;;;;;;;;;14.80;99.90;;;;;;5099769;28;19908;-80
2022/06/12 07:55:47;;;;;;;;;;;14.80;99.90;;;;;;5108452;28;20450;-79
2022/06/12 07:58:13;;;;;;;;;;;14.70;99.90;;;;;;5107136;28;19908;-78
2022/06/12 08:00:39;;;;;;;;;;;14.60;99.90;;;;;;5100871;28;19916;-80
2022/06/12 08:03:05;;;;;;;;;;;14.40;99.90;;;;;;5111960;28;19932;-86
2022/06/12 08:05:32;;;;;;;;;;;14.30;99.90;;;;;;5103144;28;19908;-88
2022/06/12 08:07:57;;;;;;;;;;;14.10;99.90;;;;;;5087833;28;19912;-86
2022/06/12 08:10:23;;;;;;;;;;;14.10;99.90;;;;;;5108661;28;19922;-84
2022/06/12 08:12:49;;;;;;;;;;;14.00;99.90;;;;;;5099184;28;20384;-85
2022/06/12 08:15:18;;;;;;;;;;;14.00;99.90;;;;;;5098635;28;19955;-84
2022/06/12 08:17:44;;;;;;;;;;;14.20;99.90;;;;;;5108326;28;19931;-83
2022/06/12 08:20:25;;;;;;;;;;;14.20;99.90;;;;;;5106038;28;20421;-81
2022/06/12 08:23:26;;;;;;;;;;;14.50;99.90;;;;;;5099603;28;19908;-81
2022/06/12 08:25:56;;;;;;;;;;;14.60;99.90;;;;;;5106997;28;19962;-81
2022/06/12 08:28:22;;;;;;;;;;;14.90;99.90;;;;;;5083469;28;19920;-80
2022/06/12 08:30:48;;;;;;;;;;;15.10;99.90;;;;;;5115755;28;19912;-80
2022/06/12 08:33:13;;;;;;;;;;;15.30;99.90;;;;;;5097306;28;19961;-79
2022/06/12 08:35:39;;;;;;;;;;;15.50;99.90;;;;;;5097529;28;19938;-80
2022/06/12 08:38:05;;;;;;;;;;;15.60;99.90;;;;;;5114313;28;19914;-80
2022/06/12 08:40:38;;;;;;;;;;;15.60;99.90;;;;;;5115465;28;19908;-81
2022/06/12 08:43:15;;;;;;;;;;;15.70;99.90;;;;;;5115074;28;19933;-80
2022/06/12 08:45:42;;;;;;;;;;;15.80;99.90;;;;;;5115536;28;19908;-81
2022/06/12 08:48:13;;;;;;;;;;;15.80;99.90;;;;;;5114629;28;19912;-80
2022/06/12 08:50:50;;;;;;;;;;;15.70;99.90;;;;;;5115431;28;19911;-79
2022/06/12 08:53:20;;;;;;;;;;;15.80;99.90;;;;;;5114649;28;19927;-81
2022/06/12 08:55:48;;;;;;;;;;;15.80;99.90;;;;;;5114645;28;19912;-81
2022/06/12 08:58:23;;;;;;;;;;;15.90;99.90;;;;;;5114758;28;19915;-81
2022/06/12 09:00:49;;;;;;;;;;;16.10;99.90;;;;;;5115507;28;19908;-81
2022/06/12 09:03:16;;;;;;;;;;;16.20;99.90;;;;;;5114617;28;19961;-80
2022/06/12 09:05:51;;;;;;;;;;;16.20;99.90;;;;;;5115042;28;19915;-80
2022/06/12 09:08:25;;;;;;;;;;;16.00;99.90;;;;;;5114319;28;19911;-79
2022/06/12 09:10:51;;;;;;;;;;;16.00;99.90;;;;;;5114844;28;20010;-80
2022/06/12 09:13:16;;;;;;;;;;;16.00;99.90;;;;;;5114475;28;19908;-80
2022/06/12 09:15:49;;;;;;;;;;;16.20;99.90;;;;;;5114987;28;19908;-80
2022/06/12 09:18:24;;;;;;;;;;;16.30;99.90;;;;;;5114531;28;19907;-80
2022/06/12 09:20:57;;;;;;;;;;;16.60;99.90;;;;;;5114955;28;20389;-80
2022/06/12 09:23:27;;;;;;;;;;;16.70;99.90;;;;;;5114225;28;19999;-80
2022/06/12 09:25:53;;;;;;;;;;;16.60;99.90;;;;;;5114410;28;19911;-80
2022/06/12 09:28:28;;;;;;;;;;;16.50;99.90;;;;;;5113980;28;19912;-80
2022/06/12 09:31:25;;;;;;;;;;;16.40;99.90;;;;;;5114662;28;19992;-80
2022/06/12 09:34:03;;;;;;;;;;;16.50;99.90;;;;;;5068781;28;19908;-79
2022/06/12 09:36:35;;;;;;;;;;;16.50;99.90;;;;;;5114671;28;19915;-79
2022/06/12 09:39:07;;;;;;;;;;;16.40;99.90;;;;;;5114677;28;19994;-80
2022/06/12 09:41:41;;;;;;;;;;;16.30;99.90;;;;;;5114535;28;19931;-80
2022/06/12 09:44:07;;;;;;;;;;;16.20;99.90;;;;;;5114181;28;19958;-79
2022/06/12 09:46:47;;;;;;;;;;;16.20;99.90;;;;;;5114502;28;19939;-80
2022/06/12 09:49:34;;;;;;;;;;;16.10;99.90;;;;;;5113465;28;20361;-79
2022/06/12 09:51:59;;;;;;;;;;;16.10;99.90;;;;;;5114325;28;19972;-79
2022/06/12 09:54:37;;;;;;;;;;;16.10;99.90;;;;;;5114118;28;19920;-79
2022/06/12 09:57:09;;;;;;;;;;;16.20;99.90;;;;;;5114077;28;19911;-76
2022/06/12 09:59:38;;;;;;;;;;;16.50;99.90;;;;;;5114360;28;19908;-79
2022/06/12 10:02:20;;;;;;;;;;;16.50;99.90;;;;;;5113848;28;19908;-76
2022/06/12 10:04:49;;;;;;;;;;;16.80;99.90;;;;;;5113527;28;20318;-80
2022/06/12 10:07:17;;;;;;;;;;;17.10;99.90;;;;;;5095055;28;19908;-81
2022/06/12 10:09:47;;;;;;;;;;;17.10;99.90;;;;;;5114227;28;19912;-80
2022/06/12 10:12:19;;;;;;;;;;;17.10;99.90;;;;;;5113536;28;19914;-78
2022/06/12 10:14:46;;;;;;;;;;;17.00;99.90;;;;;;5113896;28;20136;-78
2022/06/12 10:17:33;;;;;;;;;;;17.00;99.90;;;;;;5113193;28;19908;-80
2022/06/12 10:20:09;;;;;;;;;;;17.10;99.90;;;;;;5113237;28;20382;-79
2022/06/12 10:22:38;;;;;;;;;;;17.10;99.90;;;;;;5095552;28;20005;-78
2022/06/12 10:25:06;;;;;;;;;;;17.10;99.90;;;;;;5113671;28;20370;-78
2022/06/12 10:27:43;;;;;;;;;;;16.90;99.90;;;;;;5113029;28;19915;-78
2022/06/12 10:30:21;;;;;;;;;;;16.90;99.90;;;;;;5113119;28;19916;-76
2022/06/12 10:32:48;;;;;;;;;;;16.90;99.90;;;;;;5113678;28;19931;-78
2022/06/12 10:35:15;;;;;;;;;;;17.10;99.90;;;;;;5112782;28;19907;-78
2022/06/12 10:37:41;;;;;;;;;;;17.10;99.90;;;;;;5114584;28;19939;-78
2022/06/12 10:40:21;;;;;;;;;;;17.00;99.90;;;;;;5113850;28;19943;-75
2022/06/12 10:43:08;;;;;;;;;;;16.90;99.90;;;;;;5114083;28;19915;-78
2022/06/12 10:45:35;;;;;;;;;;;16.80;99.90;;;;;;5113572;28;19908;-78
2022/06/12 10:48:03;;;;;;;;;;;16.70;99.90;;;;;;5113379;28;19919;-78
2022/06/12 10:50:33;;;;;;;;;;;16.40;99.90;;;;;;5112620;28;19912;-78
2022/06/12 10:53:06;;;;;;;;;;;16.10;99.90;;;;;;5094996;28;20245;-78
2022/06/12 10:55:31;;;;;;;;;;;15.90;99.90;;;;;;5094350;28;19915;-78
2022/06/12 10:58:04;;;;;;;;;;;15.90;99.90;;;;;;5095002;28;19908;-78
2022/06/12 11:00:31;;;;;;;;;;;15.70;99.90;;;;;;5112964;28;19915;-78
2022/06/12 11:02:59;;;;;;;;;;;15.60;99.90;;;;;;5113238;28;19915;-77
2022/06/12 11:05:40;;;;;;;;;;;15.70;99.90;;;;;;5112412;28;19908;-77
2022/06/12 11:08:06;;;;;;;;;;;15.80;99.90;;;;;;5113039;28;19919;-77
2022/06/12 11:10:50;;;;;;;;;;;16.10;99.90;;;;;;5112054;28;20250;-78
2022/06/12 11:13:33;;;;;;;;;;;16.40;99.90;;;;;;5112307;28;19911;-77
2022/06/12 11:16:21;;;;;;;;;;;16.80;99.90;;;;;;5112259;28;20429;-77
2022/06/12 11:18:47;;;;;;;;;;;17.00;99.90;;;;;;5114229;28;19907;-77
2022/06/12 11:21:31;;;;;;;;;;;17.10;99.90;;;;;;5116007;28;19927;-78
2022/06/12 11:24:08;;;;;;;;;;;17.00;99.90;;;;;;5116982;28;19907;-77
2022/06/12 11:26:52;;;;;;;;;;;17.10;99.90;;;;;;5116283;28;19908;-78
2022/06/12 11:29:22;;;;;;;;;;;17.20;99.90;;;;;;5116350;28;20414;-78
2022/06/12 11:31:55;;;;;;;;;;;17.40;99.90;;;;;;5132826;28;19958;-78
2022/06/12 11:34:29;;;;;;;;;;;17.40;99.90;;;;;;5132075;28;20323;-76
2022/06/12 11:37:13;;;;;;;;;;;17.50;99.90;;;;;;5117527;28;19991;-78
2022/06/12 11:40:00;;;;;;;;;;;17.70;99.90;;;;;;5116855;28;19954;-78
2022/06/12 11:42:42;;;;;;;;;;;17.70;99.90;;;;;;5115985;28;19911;-78
2022/06/12 11:45:20;;;;;;;;;;;17.70;99.90;;;;;;5116759;28;19908;-78
2022/06/12 11:47:57;;;;;;;;;;;17.90;99.90;;;;;;5116348;28;19920;-79
2022/06/12 11:50:39;;;;;;;;;;;18.20;99.90;;;;;;5116322;28;19911;-79
2022/06/12 11:53:23;;;;;;;;;;;18.20;99.90;;;;;;5116434;28;19954;-78
2022/06/12 11:55:58;;;;;;;;;;;18.30;99.90;;;;;;5116433;28;20006;-79
2022/06/12 11:58:26;;;;;;;;;;;18.00;99.90;;;;;;5115619;28;19920;-78
2022/06/12 12:00:59;;;;;;;;;;;17.70;99.90;;;;;;5116792;28;20014;-77
2022/06/12 12:03:30;;;;;;;;;;;17.50;99.90;;;;;;5115950;28;19911;-77
2022/06/12 12:06:14;;;;;;;;;;;17.40;99.90;;;;;;5116185;28;19912;-79
2022/06/12 12:08:48;;;;;;;;;;;17.30;99.90;;;;;;5115804;28;20364;-78
2022/06/12 12:11:24;;;;;;;;;;;17.20;99.90;;;;;;5115524;28;19912;-76
2022/06/12 12:13:52;;;;;;;;;;;17.10;99.90;;;;;;5116201;28;19912;-79
2022/06/12 12:16:26;;;;;;;;;;;16.80;99.90;;;;;;5115587;28;19947;-77
2022/06/12 12:19:05;;;;;;;;;;;16.50;99.90;;;;;;5116019;28;19947;-79
2022/06/12 12:21:30;;;;;;;;;;;16.40;99.90;;;;;;5115051;28;19920;-78
2022/06/12 12:23:57;;;;;;;;;;;16.40;99.90;;;;;;5097694;28;19918;-78
2022/06/12 12:26:25;;;;;;;;;;;16.30;99.90;;;;;;5114863;28;20409;-78
2022/06/12 12:28:53;;;;;;;;;;;16.70;99.90;;;;;;5115883;28;19912;-78
2022/06/12 12:31:18;;;;;;;;;;;17.10;99.90;;;;;;5113389;28;20351;-78
2022/06/12 12:33:45;;;;;;;;;;;17.40;99.90;;;;;;5115759;28;20019;-78
2022/06/12 12:41:46;;;;;;;;;;;17.60;99.90;;;;;;5115617;28;20371;-78
2022/06/12 12:44:13;;;;;;;;;;;17.60;99.90;;;;;;5115532;28;19914;-79
2022/06/12 12:46:46;;;;;;;;;;;17.50;99.90;;;;;;5114908;28;19929;-78
2022/06/12 12:49:32;;;;;;;;;;;17.60;99.90;;;;;;5115268;28;19911;-79
2022/06/12 12:52:04;;;;;;;;;;;17.60;99.90;;;;;;5115276;28;19913;-79
2022/06/12 12:54:40;;;;;;;;;;;17.50;99.90;;;;;;5114517;28;19961;-78
2022/06/12 12:57:05;;;;;;;;;;;17.40;99.90;;;;;;5115454;28;19919;-78
2022/06/12 12:59:39;;;;;;;;;;;17.50;99.90;;;;;;5114584;28;19908;-79
2022/06/12 13:02:23;;;;;;;;;;;17.50;99.90;;;;;;5115335;28;19951;-80
2022/06/12 13:04:50;;;;;;;;;;;17.50;99.90;;;;;;5114785;28;19911;-80
2022/06/12 13:07:25;;;;;;;;;;;17.50;99.90;;;;;;5114497;28;19950;-77
2022/06/12 13:09:50;;;;;;;;;;;17.50;99.90;;;;;;5114923;28;19916;-78
2022/06/12 13:12:25;;;;;;;;;;;17.50;99.90;;;;;;5114616;28;19912;-77
2022/06/12 13:14:50;;;;;;;;;;;17.50;99.90;;;;;;5114903;28;19907;-80
2022/06/12 13:17:26;;;;;;;;;;;17.60;99.90;;;;;;5114785;28;20417;-76
2022/06/12 13:19:51;;;;;;;;;;;17.60;99.90;;;;;;5114804;28;19919;-78
2022/06/12 13:22:17;;;;;;;;;;;17.70;99.90;;;;;;5114528;28;19994;-77
2022/06/12 13:24:46;;;;;;;;;;;17.70;99.90;;;;;;5114276;28;19958;-79
2022/06/12 13:27:18;;;;;;;;;;;17.60;99.90;;;;;;5114931;28;19915;-80
2022/06/12 13:29:44;;;;;;;;;;;17.50;99.90;;;;;;5114101;28;19918;-78
2022/06/12 13:32:19;;;;;;;;;;;17.40;99.90;;;;;;5114694;28;19919;-79
2022/06/12 13:34:52;;;;;;;;;;;17.30;99.90;;;;;;5114817;28;19908;-79
2022/06/12 13:37:18;;;;;;;;;;;17.20;99.90;;;;;;5114217;28;20000;-76
2022/06/12 13:39:46;;;;;;;;;;;17.20;99.90;;;;;;5113916;28;19908;-79
2022/06/12 13:42:14;;;;;;;;;;;17.10;99.90;;;;;;5113856;28;19995;-79
2022/06/12 13:44:42;;;;;;;;;;;17.10;99.90;;;;;;5113583;28;19951;-79
2022/06/12 13:47:13;;;;;;;;;;;17.00;99.90;;;;;;5114350;28;19915;-79
2022/06/12 13:49:45;;;;;;;;;;;17.00;99.90;;;;;;5113568;28;20348;-78
2022/06/12 13:52:13;;;;;;;;;;;16.90;99.90;;;;;;5117704;28;19979;-78
2022/06/12 13:54:43;;;;;;;;;;;16.70;99.90;;;;;;5133001;28;19951;-79
2022/06/12 13:57:14;;;;;;;;;;;16.40;99.90;;;;;;5124447;28;19908;-78
2022/06/12 13:59:45;;;;;;;;;;;16.10;99.90;;;;;;5115619;28;19908;-77
2022/06/12 14:02:16;;;;;;;;;;;16.00;99.90;;;;;;5115190;28;19914;-77
2022/06/12 14:04:56;;;;;;;;;;;15.90;99.90;;;;;;5113606;28;19929;-79
2022/06/12 14:07:23;;;;;;;;;;;15.70;99.90;;;;;;5113137;28;20375;-76
2022/06/12 14:09:54;;;;;;;;;;;15.50;99.90;;;;;;5113431;28;20489;-78
2022/06/12 14:12:20;;;;;;;;;;;15.50;99.90;;;;;;5113787;28;19908;-76
2022/06/12 14:14:47;;;;;;;;;;;15.50;99.90;;;;;;5113494;28;19934;-78
2022/06/12 14:17:18;;;;;;;;;;;15.50;99.90;;;;;;5095917;28;19908;-77
2022/06/12 14:19:54;;;;;;;;;;;15.60;99.90;;;;;;5112965;28;20023;-77
2022/06/12 14:22:19;;;;;;;;;;;15.70;99.90;;;;;;5113895;28;19933;-80
2022/06/12 14:24:56;;;;;;;;;;;15.90;99.90;;;;;;5113125;28;19918;-80
2022/06/12 14:27:23;;;;;;;;;;;16.20;99.90;;;;;;5113557;28;19908;-76
2022/06/12 14:29:50;;;;;;;;;;;16.50;99.90;;;;;;5113625;28;19935;-76
2022/06/12 14:32:18;;;;;;;;;;;16.80;99.90;;;;;;5113613;28;19931;-78
2022/06/12 14:34:45;;;;;;;;;;;17.10;99.90;;;;;;5112708;28;20404;-77
2022/06/12 14:37:41;;;;;;;;;;;17.20;99.90;;;;;;5113565;28;19908;-77
2022/06/12 14:40:19;;;;;;;;;;;17.30;99.90;;;;;;5111465;28;19907;-77
2022/06/12 14:42:44;;;;;;;;;;;17.50;99.90;;;;;;5112522;28;20315;-77
2022/06/12 14:45:14;;;;;;;;;;;17.50;99.90;;;;;;5113430;28;19908;-77
2022/06/12 14:47:39;;;;;;;;;;;17.20;99.90;;;;;;5112396;28;20269;-78